• Join FlightAware (Why Join?)
  • Login
  • US Flag 
09:33AM EDT


 

Airport Tracker/Info


-or-


 

Live Flight TrackerFlight Track Log ✈ N770NC ✈ 18-Jun-2013 ✈ KATL - KJAN

Flight Track Log - Related Links

Times and Time Zones

All times are in EDT time to prevent confusion due to time zone crossing. See the N770NC flight status page for this flight to view local times or setup timezone preferences in your user account.

Time Position Orientation Groundspeed Altitude Reporting Facility
EDT Latitude Longitude Course Direction KTS MPH feet Rate Location/Type
10:50PM 33.6333 -84.4667 260° West 177 204 2,200  Level Atlanta TRACON
10:51PM 33.6056 -84.5278 241° Southwest 443 510 3,600 1,980 Climbing Atlanta Center
10:52PM 33.5675 -84.5997 238° Southwest 331 381 6,200 2,100 Climbing Atlanta Center
10:53PM 33.5647 -84.7931 257° West  Level FlightAware Approximate
10:53PM 33.5339 -84.6742 242° Southwest 268 308 7,800  Level Atlanta Center
10:54PM 33.5468 -84.9058 260° West  Level FlightAware Approximate
10:54PM 33.5186 -84.7564 257° West 268 308 10,000  Level Atlanta Center
10:55PM 33.5292 -85.0290 260° West  Level FlightAware Approximate
10:55PM 33.5056 -84.8511 261° West 280 322 11,000  Level Atlanta Center
10:56PM 33.4944 -84.9581 263° West 314 361 12,500 1,260 Climbing Atlanta Center
10:57PM 33.4872 -85.0725 266° West 339 390 13,600 1,320 Climbing Atlanta Center
10:58PM 33.4800 -85.1944 266° West 363 418 15,200 1,500 Climbing Atlanta Center
10:59PM 33.4786 -85.3289 269° West 368 423 16,600 1,440 Climbing Atlanta Center
11:00PM 33.4731 -85.4533 267° West 373 429 18,100 1,260 Climbing Atlanta Center
11:01PM 33.4653 -85.5828 266° West 380 437 19,200 1,140 Climbing Atlanta Center
11:02PM 33.4489 -85.7119 261° West 392 451 20,400 1,080 Climbing Atlanta Center
11:03PM 33.4306 -85.8236 259° West 392 451 21,400 960 Climbing Atlanta Center
11:05PM 33.3946 -85.9758 254° West  Level FlightAware Approximate
11:05PM 33.3889 -86.0889 254° West 397 457 23,400  Level Atlanta Center
11:06PM 33.3678 -86.2228 259° West 409 471 24,200 840 Climbing Atlanta Center
11:07PM 33.3467 -86.3539 259° West 409 471 25,100 840 Climbing Atlanta Center
11:08PM 33.3208 -86.5050 258° West 419 482 25,900 660 Climbing Atlanta Center
11:09PM 33.3019 -86.6161 259° West 419 482 26,500 720 Climbing Atlanta Center
11:10PM 33.2839 -86.7697 262° West 427 491 27,400 720 Climbing Atlanta Center
11:11PM 33.2619 -86.9131 260° West 427 491 28,000 300 Climbing Atlanta Center
11:12PM 33.2394 -87.0639 260° West 427 491 28,000  Level Atlanta Center
11:13PM 33.1822 -87.1861 241° Southwest 422 486 28,000  Level Atlanta Center
11:15PM 33.0681 -87.3678 233° Southwest 422 486 28,000  Level Memphis Center
11:16PM 32.9933 -87.4792 231° Southwest 428 493 28,000  Level Memphis Center
11:17PM 32.9208 -87.5881 232° Southwest 433 498 28,000  Level Memphis Center
11:18PM 32.8608 -87.7086 239° Southwest 427 491 28,000  Level Memphis Center
11:19PM 32.8028 -87.8314 241° Southwest 427 491 28,000  Level Memphis Center
11:20PM 32.7569 -87.9414 244° Southwest 427 491 28,000  Level Memphis Center
11:21PM 32.7008 -88.0639 241° Southwest 422 486 28,000  Level Memphis Center
11:22PM 32.6489 -88.1886 244° Southwest 422 486 28,000 -600 Level Memphis Center
11:23PM 32.6008 -88.3156 246° West 416 479 26,900 -1,320 Descending Memphis Center
11:24PM 32.5361 -88.4403 238° Southwest 430 495 25,400 -1,560 Descending Memphis Center
11:25PM 32.4794 -88.5669 242° Southwest 435 501 23,800 -1,800 Descending Memphis Center
11:26PM 32.4269 -88.6911 243° Southwest 435 501 21,800 -2,160 Descending Memphis Center
11:27PM 32.3783 -88.8075 244° Southwest 424 488 19,500 -2,100 Descending Memphis Center
11:28PM 32.3528 -88.9311 256° West 407 468 17,700 -2,100 Descending Memphis Center
11:29PM 32.3394 -89.0542 263° West 386 444 15,300 -2,220 Descending Memphis Center
11:30PM 32.3197 -89.1772 259° West 386 444 13,300 -1,200 Descending Memphis Center
11:31PM 32.3061 -89.2906 262° West 380 437 12,900 -780 Descending Memphis Center
11:32PM 32.2883 -89.4039 260° West 361 415 11,800 -1,020 Descending Memphis Center
11:33PM 32.2703 -89.5072 258° West 349 402 10,900 -1,140 Descending Memphis Center
11:34PM 32.2458 -89.5958 252° West 313 360 9,600 -1,500 Descending Memphis Center
11:35PM 32.2358 -89.6819 262° West 287 330 7,900 -1,680 Descending Memphis Center
11:36PM 32.2342 -89.7703 269° West 273 314 6,300 -1,680 Descending Memphis Center
11:37PM 32.2344 -89.8539 270° West 273 314 4,600 -1,620 Descending Memphis Center
11:38PM 32.2181 -89.9253 255° West 250 288 3,100 -1,200 Descending Memphis Center
11:39PM 32.1911 -89.9892 244° Southwest 231 266 2,200 -900 Descending Memphis Center